sensor_id;sensor_type;location;lat;lon;timestamp;P1;durP1;ratioP1;P2;durP2;ratioP2
16073;SDS011;8141;52.664;5.074;2023-09-30T00:00:16;5.50;;;2.43;;
16073;SDS011;8141;52.664;5.074;2023-09-30T00:02:42;6.03;;;2.53;;
16073;SDS011;8141;52.664;5.074;2023-09-30T00:05:08;6.93;;;2.60;;
16073;SDS011;8141;52.664;5.074;2023-09-30T00:07:35;2.87;;;1.60;;
16073;SDS011;8141;52.664;5.074;2023-09-30T00:10:02;5.10;;;2.40;;
16073;SDS011;8141;52.664;5.074;2023-09-30T00:12:28;4.17;;;1.83;;
16073;SDS011;8141;52.664;5.074;2023-09-30T00:14:54;4.03;;;2.10;;
16073;SDS011;8141;52.664;5.074;2023-09-30T00:17:20;6.47;;;2.13;;
16073;SDS011;8141;52.664;5.074;2023-09-30T00:19:46;4.83;;;2.10;;
16073;SDS011;8141;52.664;5.074;2023-09-30T00:22:11;5.47;;;1.87;;
16073;SDS011;8141;52.664;5.074;2023-09-30T00:24:37;4.50;;;2.07;;
16073;SDS011;8141;52.664;5.074;2023-09-30T00:27:03;6.20;;;2.10;;
16073;SDS011;8141;52.664;5.074;2023-09-30T00:29:29;6.60;;;2.13;;
16073;SDS011;8141;52.664;5.074;2023-09-30T00:31:55;4.73;;;2.20;;
16073;SDS011;8141;52.664;5.074;2023-09-30T00:34:21;6.67;;;1.80;;
16073;SDS011;8141;52.664;5.074;2023-09-30T00:36:46;4.17;;;2.00;;
16073;SDS011;8141;52.664;5.074;2023-09-30T00:39:12;3.07;;;1.70;;
16073;SDS011;8141;52.664;5.074;2023-09-30T00:41:38;5.50;;;2.33;;
16073;SDS011;8141;52.664;5.074;2023-09-30T00:44:05;4.00;;;1.80;;
16073;SDS011;8141;52.664;5.074;2023-09-30T00:46:31;4.23;;;1.90;;
16073;SDS011;8141;52.664;5.074;2023-09-30T00:48:58;8.87;;;2.13;;
16073;SDS011;8141;52.664;5.074;2023-09-30T00:51:25;4.80;;;1.80;;
16073;SDS011;8141;52.664;5.074;2023-09-30T00:53:52;3.30;;;1.67;;
16073;SDS011;8141;52.664;5.074;2023-09-30T00:56:22;4.13;;;1.80;;
16073;SDS011;8141;52.664;5.074;2023-09-30T00:58:50;4.73;;;2.20;;
16073;SDS011;8141;52.664;5.074;2023-09-30T01:01:17;2.97;;;1.77;;
16073;SDS011;8141;52.664;5.074;2023-09-30T01:03:47;3.37;;;1.40;;
16073;SDS011;8141;52.664;5.074;2023-09-30T01:06:13;4.27;;;1.93;;
16073;SDS011;8141;52.664;5.074;2023-09-30T01:08:39;3.37;;;1.50;;
16073;SDS011;8141;52.664;5.074;2023-09-30T01:11:06;2.30;;;1.40;;
16073;SDS011;8141;52.664;5.074;2023-09-30T01:13:36;4.13;;;1.57;;
16073;SDS011;8141;52.664;5.074;2023-09-30T01:16:06;3.33;;;1.80;;
16073;SDS011;8141;52.664;5.074;2023-09-30T01:18:36;2.97;;;1.90;;
16073;SDS011;8141;52.664;5.074;2023-09-30T01:21:04;2.70;;;1.37;;
16073;SDS011;8141;52.664;5.074;2023-09-30T01:23:31;3.30;;;1.50;;
16073;SDS011;8141;52.664;5.074;2023-09-30T01:26:00;2.33;;;1.40;;
16073;SDS011;8141;52.664;5.074;2023-09-30T01:28:34;4.53;;;2.00;;
16073;SDS011;8141;52.664;5.074;2023-09-30T01:31:00;3.37;;;1.53;;
16073;SDS011;8141;52.664;5.074;2023-09-30T01:33:26;2.00;;;1.33;;
16073;SDS011;8141;52.664;5.074;2023-09-30T01:35:53;1.73;;;1.40;;
16073;SDS011;8141;52.664;5.074;2023-09-30T01:38:19;2.20;;;1.33;;
16073;SDS011;8141;52.664;5.074;2023-09-30T01:40:45;3.97;;;1.73;;
16073;SDS011;8141;52.664;5.074;2023-09-30T01:43:15;4.27;;;1.73;;
16073;SDS011;8141;52.664;5.074;2023-09-30T01:45:41;4.63;;;1.47;;
16073;SDS011;8141;52.664;5.074;2023-09-30T01:48:08;2.20;;;1.37;;
16073;SDS011;8141;52.664;5.074;2023-09-30T01:50:39;2.33;;;1.40;;
16073;SDS011;8141;52.664;5.074;2023-09-30T01:53:08;3.33;;;1.50;;
16073;SDS011;8141;52.664;5.074;2023-09-30T01:55:34;2.30;;;1.23;;
16073;SDS011;8141;52.664;5.074;2023-09-30T01:58:03;2.10;;;1.30;;
16073;SDS011;8141;52.664;5.074;2023-09-30T02:00:29;2.83;;;1.30;;
16073;SDS011;8141;52.664;5.074;2023-09-30T02:02:55;3.70;;;1.27;;
16073;SDS011;8141;52.664;5.074;2023-09-30T02:05:22;3.77;;;1.47;;
16073;SDS011;8141;52.664;5.074;2023-09-30T02:07:49;5.93;;;1.47;;
16073;SDS011;8141;52.664;5.074;2023-09-30T02:10:16;3.03;;;1.70;;
16073;SDS011;8141;52.664;5.074;2023-09-30T02:12:43;2.50;;;1.30;;
16073;SDS011;8141;52.664;5.074;2023-09-30T02:15:10;4.33;;;1.33;;
16073;SDS011;8141;52.664;5.074;2023-09-30T02:17:37;3.37;;;1.70;;
16073;SDS011;8141;52.664;5.074;2023-09-30T02:20:02;3.90;;;1.43;;
16073;SDS011;8141;52.664;5.074;2023-09-30T02:22:37;2.03;;;1.23;;
16073;SDS011;8141;52.664;5.074;2023-09-30T02:25:04;2.90;;;1.13;;
16073;SDS011;8141;52.664;5.074;2023-09-30T02:27:32;2.43;;;1.30;;
16073;SDS011;8141;52.664;5.074;2023-09-30T02:29:59;3.33;;;1.17;;
16073;SDS011;8141;52.664;5.074;2023-09-30T02:32:25;1.87;;;1.30;;
16073;SDS011;8141;52.664;5.074;2023-09-30T02:34:50;2.63;;;1.13;;
16073;SDS011;8141;52.664;5.074;2023-09-30T02:37:16;2.93;;;1.30;;
16073;SDS011;8141;52.664;5.074;2023-09-30T02:39:43;2.90;;;1.33;;
16073;SDS011;8141;52.664;5.074;2023-09-30T02:42:09;4.13;;;1.47;;
16073;SDS011;8141;52.664;5.074;2023-09-30T02:44:35;3.03;;;1.50;;
16073;SDS011;8141;52.664;5.074;2023-09-30T02:47:01;2.33;;;1.30;;
16073;SDS011;8141;52.664;5.074;2023-09-30T02:49:27;4.00;;;1.40;;
16073;SDS011;8141;52.664;5.074;2023-09-30T02:51:53;1.87;;;1.30;;
16073;SDS011;8141;52.664;5.074;2023-09-30T02:54:18;1.40;;;0.93;;
16073;SDS011;8141;52.664;5.074;2023-09-30T02:56:44;2.80;;;1.60;;
16073;SDS011;8141;52.664;5.074;2023-09-30T02:59:12;2.63;;;1.07;;
16073;SDS011;8141;52.664;5.074;2023-09-30T03:01:40;1.93;;;1.20;;
16073;SDS011;8141;52.664;5.074;2023-09-30T03:04:06;1.97;;;1.00;;
16073;SDS011;8141;52.664;5.074;2023-09-30T03:06:32;1.43;;;1.10;;
16073;SDS011;8141;52.664;5.074;2023-09-30T03:09:02;1.50;;;1.23;;
16073;SDS011;8141;52.664;5.074;2023-09-30T03:11:29;5.30;;;1.80;;
16073;SDS011;8141;52.664;5.074;2023-09-30T03:13:56;1.30;;;0.90;;
16073;SDS011;8141;52.664;5.074;2023-09-30T03:16:22;4.70;;;1.20;;
16073;SDS011;8141;52.664;5.074;2023-09-30T03:18:49;2.83;;;1.33;;
16073;SDS011;8141;52.664;5.074;2023-09-30T03:21:15;1.70;;;1.17;;
16073;SDS011;8141;52.664;5.074;2023-09-30T03:23:42;2.43;;;1.00;;
16073;SDS011;8141;52.664;5.074;2023-09-30T03:26:08;2.30;;;1.13;;
16073;SDS011;8141;52.664;5.074;2023-09-30T03:28:35;2.20;;;1.30;;
16073;SDS011;8141;52.664;5.074;2023-09-30T03:31:03;2.13;;;1.13;;
16073;SDS011;8141;52.664;5.074;2023-09-30T03:33:33;1.30;;;0.83;;
16073;SDS011;8141;52.664;5.074;2023-09-30T03:35:59;1.60;;;0.93;;
16073;SDS011;8141;52.664;5.074;2023-09-30T03:38:26;1.27;;;0.87;;
16073;SDS011;8141;52.664;5.074;2023-09-30T03:40:51;1.90;;;0.90;;
16073;SDS011;8141;52.664;5.074;2023-09-30T03:43:20;1.43;;;0.90;;
16073;SDS011;8141;52.664;5.074;2023-09-30T03:45:46;2.37;;;1.23;;
16073;SDS011;8141;52.664;5.074;2023-09-30T03:48:12;1.93;;;1.20;;
16073;SDS011;8141;52.664;5.074;2023-09-30T03:50:38;2.70;;;1.03;;
16073;SDS011;8141;52.664;5.074;2023-09-30T03:53:04;1.27;;;1.00;;
16073;SDS011;8141;52.664;5.074;2023-09-30T03:55:34;2.57;;;1.13;;
16073;SDS011;8141;52.664;5.074;2023-09-30T03:58:00;2.30;;;1.00;;
16073;SDS011;8141;52.664;5.074;2023-09-30T04:00:27;1.83;;;1.03;;
16073;SDS011;8141;52.664;5.074;2023-09-30T04:02:53;1.87;;;1.30;;
16073;SDS011;8141;52.664;5.074;2023-09-30T04:05:23;2.03;;;1.20;;
16073;SDS011;8141;52.664;5.074;2023-09-30T04:08:01;2.13;;;1.20;;
16073;SDS011;8141;52.664;5.074;2023-09-30T04:10:27;2.00;;;1.20;;
16073;SDS011;8141;52.664;5.074;2023-09-30T04:12:55;1.90;;;0.90;;
16073;SDS011;8141;52.664;5.074;2023-09-30T04:15:21;2.27;;;1.10;;
16073;SDS011;8141;52.664;5.074;2023-09-30T04:17:48;2.97;;;1.23;;
16073;SDS011;8141;52.664;5.074;2023-09-30T04:20:14;1.30;;;0.80;;
16073;SDS011;8141;52.664;5.074;2023-09-30T04:22:46;2.47;;;1.10;;
16073;SDS011;8141;52.664;5.074;2023-09-30T04:25:14;1.43;;;1.10;;
16073;SDS011;8141;52.664;5.074;2023-09-30T04:27:42;1.50;;;1.30;;
16073;SDS011;8141;52.664;5.074;2023-09-30T04:30:08;1.30;;;0.87;;
16073;SDS011;8141;52.664;5.074;2023-09-30T04:32:36;1.50;;;0.93;;
16073;SDS011;8141;52.664;5.074;2023-09-30T04:35:03;1.87;;;1.17;;
16073;SDS011;8141;52.664;5.074;2023-09-30T04:37:30;1.53;;;0.90;;
16073;SDS011;8141;52.664;5.074;2023-09-30T04:39:56;1.20;;;0.87;;
16073;SDS011;8141;52.664;5.074;2023-09-30T04:42:23;2.27;;;0.90;;
16073;SDS011;8141;52.664;5.074;2023-09-30T04:44:50;1.80;;;1.10;;
16073;SDS011;8141;52.664;5.074;2023-09-30T04:47:18;2.10;;;1.07;;
16073;SDS011;8141;52.664;5.074;2023-09-30T04:49:44;1.37;;;1.00;;
16073;SDS011;8141;52.664;5.074;2023-09-30T04:52:10;1.70;;;1.00;;
16073;SDS011;8141;52.664;5.074;2023-09-30T04:54:36;1.13;;;0.93;;
16073;SDS011;8141;52.664;5.074;2023-09-30T04:57:02;1.60;;;0.97;;
16073;SDS011;8141;52.664;5.074;2023-09-30T04:59:28;2.00;;;1.30;;
16073;SDS011;8141;52.664;5.074;2023-09-30T05:01:54;1.60;;;1.07;;
16073;SDS011;8141;52.664;5.074;2023-09-30T05:04:21;2.47;;;1.20;;
16073;SDS011;8141;52.664;5.074;2023-09-30T05:06:49;1.13;;;0.83;;
16073;SDS011;8141;52.664;5.074;2023-09-30T05:09:15;1.97;;;1.10;;
16073;SDS011;8141;52.664;5.074;2023-09-30T05:11:40;1.57;;;1.20;;
16073;SDS011;8141;52.664;5.074;2023-09-30T05:14:06;3.50;;;1.00;;
16073;SDS011;8141;52.664;5.074;2023-09-30T05:16:32;1.30;;;0.90;;
16073;SDS011;8141;52.664;5.074;2023-09-30T05:18:58;1.93;;;1.10;;
16073;SDS011;8141;52.664;5.074;2023-09-30T05:21:23;1.50;;;0.83;;
16073;SDS011;8141;52.664;5.074;2023-09-30T05:23:49;1.47;;;1.00;;
16073;SDS011;8141;52.664;5.074;2023-09-30T05:26:15;1.40;;;0.77;;
16073;SDS011;8141;52.664;5.074;2023-09-30T05:28:41;1.20;;;0.90;;
16073;SDS011;8141;52.664;5.074;2023-09-30T05:31:07;1.90;;;1.20;;
16073;SDS011;8141;52.664;5.074;2023-09-30T05:33:33;1.13;;;1.03;;
16073;SDS011;8141;52.664;5.074;2023-09-30T05:36:01;1.90;;;1.20;;
16073;SDS011;8141;52.664;5.074;2023-09-30T05:38:28;2.83;;;1.20;;
16073;SDS011;8141;52.664;5.074;2023-09-30T05:40:56;1.70;;;0.90;;
16073;SDS011;8141;52.664;5.074;2023-09-30T05:43:23;2.23;;;1.10;;
16073;SDS011;8141;52.664;5.074;2023-09-30T05:45:50;2.20;;;1.00;;
16073;SDS011;8141;52.664;5.074;2023-09-30T05:48:19;1.17;;;0.87;;
16073;SDS011;8141;52.664;5.074;2023-09-30T05:50:46;1.47;;;0.73;;
16073;SDS011;8141;52.664;5.074;2023-09-30T05:53:12;1.47;;;0.90;;
16073;SDS011;8141;52.664;5.074;2023-09-30T05:55:38;0.87;;;0.70;;
16073;SDS011;8141;52.664;5.074;2023-09-30T05:58:08;1.93;;;0.93;;
16073;SDS011;8141;52.664;5.074;2023-09-30T06:00:34;1.37;;;1.00;;
16073;SDS011;8141;52.664;5.074;2023-09-30T06:03:00;1.43;;;1.30;;
16073;SDS011;8141;52.664;5.074;2023-09-30T06:05:30;0.87;;;0.67;;
16073;SDS011;8141;52.664;5.074;2023-09-30T06:07:56;0.93;;;0.77;;
16073;SDS011;8141;52.664;5.074;2023-09-30T06:10:23;1.57;;;0.87;;
16073;SDS011;8141;52.664;5.074;2023-09-30T06:12:51;1.37;;;0.93;;
16073;SDS011;8141;52.664;5.074;2023-09-30T06:15:21;1.63;;;0.80;;
16073;SDS011;8141;52.664;5.074;2023-09-30T06:17:54;0.90;;;0.70;;
16073;SDS011;8141;52.664;5.074;2023-09-30T06:20:21;1.60;;;1.07;;
16073;SDS011;8141;52.664;5.074;2023-09-30T06:22:48;0.80;;;0.70;;
16073;SDS011;8141;52.664;5.074;2023-09-30T06:25:14;1.00;;;0.90;;
16073;SDS011;8141;52.664;5.074;2023-09-30T06:27:47;1.10;;;0.80;;
16073;SDS011;8141;52.664;5.074;2023-09-30T06:30:14;0.80;;;0.80;;
16073;SDS011;8141;52.664;5.074;2023-09-30T06:32:41;1.10;;;0.83;;
16073;SDS011;8141;52.664;5.074;2023-09-30T06:35:08;1.20;;;1.00;;
16073;SDS011;8141;52.664;5.074;2023-09-30T06:37:37;2.30;;;1.30;;
16073;SDS011;8141;52.664;5.074;2023-09-30T06:40:07;1.60;;;0.90;;
16073;SDS011;8141;52.664;5.074;2023-09-30T06:42:37;1.30;;;0.90;;
16073;SDS011;8141;52.664;5.074;2023-09-30T06:45:05;1.50;;;1.03;;
16073;SDS011;8141;52.664;5.074;2023-09-30T06:47:32;1.80;;;1.07;;
16073;SDS011;8141;52.664;5.074;2023-09-30T06:50:08;1.70;;;1.07;;
16073;SDS011;8141;52.664;5.074;2023-09-30T06:52:41;1.73;;;1.00;;
16073;SDS011;8141;52.664;5.074;2023-09-30T06:55:10;2.30;;;1.17;;
16073;SDS011;8141;52.664;5.074;2023-09-30T06:57:39;1.90;;;0.87;;
16073;SDS011;8141;52.664;5.074;2023-09-30T07:02:36;1.53;;;1.10;;
16073;SDS011;8141;52.664;5.074;2023-09-30T07:05:10;1.77;;;1.07;;
16073;SDS011;8141;52.664;5.074;2023-09-30T07:07:37;1.60;;;1.03;;
16073;SDS011;8141;52.664;5.074;2023-09-30T07:10:07;1.30;;;1.00;;
16073;SDS011;8141;52.664;5.074;2023-09-30T07:12:33;2.07;;;1.23;;
16073;SDS011;8141;52.664;5.074;2023-09-30T07:15:03;1.93;;;0.90;;
16073;SDS011;8141;52.664;5.074;2023-09-30T07:17:30;4.23;;;1.80;;
16073;SDS011;8141;52.664;5.074;2023-09-30T07:19:59;6.13;;;3.00;;
16073;SDS011;8141;52.664;5.074;2023-09-30T07:22:25;5.40;;;2.70;;
16073;SDS011;8141;52.664;5.074;2023-09-30T07:24:51;9.20;;;3.33;;
16073;SDS011;8141;52.664;5.074;2023-09-30T07:27:18;7.73;;;3.30;;
16073;SDS011;8141;52.664;5.074;2023-09-30T07:29:43;6.53;;;3.07;;
16073;SDS011;8141;52.664;5.074;2023-09-30T07:32:09;12.47;;;3.37;;
16073;SDS011;8141;52.664;5.074;2023-09-30T07:34:35;6.87;;;2.80;;
16073;SDS011;8141;52.664;5.074;2023-09-30T07:37:01;9.77;;;3.33;;
16073;SDS011;8141;52.664;5.074;2023-09-30T07:39:27;6.50;;;3.33;;
16073;SDS011;8141;52.664;5.074;2023-09-30T07:41:54;9.77;;;3.20;;
16073;SDS011;8141;52.664;5.074;2023-09-30T07:44:19;5.10;;;2.60;;
16073;SDS011;8141;52.664;5.074;2023-09-30T07:46:45;7.83;;;3.40;;
16073;SDS011;8141;52.664;5.074;2023-09-30T07:49:12;7.90;;;3.30;;
16073;SDS011;8141;52.664;5.074;2023-09-30T07:51:37;6.60;;;2.70;;
16073;SDS011;8141;52.664;5.074;2023-09-30T07:54:06;7.67;;;3.17;;
16073;SDS011;8141;52.664;5.074;2023-09-30T07:56:32;7.97;;;3.00;;
16073;SDS011;8141;52.664;5.074;2023-09-30T07:58:57;4.17;;;2.23;;
16073;SDS011;8141;52.664;5.074;2023-09-30T08:01:23;8.63;;;2.43;;
16073;SDS011;8141;52.664;5.074;2023-09-30T08:03:49;6.33;;;2.93;;
16073;SDS011;8141;52.664;5.074;2023-09-30T08:06:15;6.13;;;3.03;;
16073;SDS011;8141;52.664;5.074;2023-09-30T08:08:41;9.10;;;3.10;;
16073;SDS011;8141;52.664;5.074;2023-09-30T08:11:06;7.50;;;2.90;;
16073;SDS011;8141;52.664;5.074;2023-09-30T08:13:32;8.17;;;3.03;;
16073;SDS011;8141;52.664;5.074;2023-09-30T08:16:01;10.43;;;3.47;;
16073;SDS011;8141;52.664;5.074;2023-09-30T08:18:27;10.00;;;3.60;;
16073;SDS011;8141;52.664;5.074;2023-09-30T08:20:53;8.93;;;3.00;;
16073;SDS011;8141;52.664;5.074;2023-09-30T08:23:18;7.70;;;3.37;;
16073;SDS011;8141;52.664;5.074;2023-09-30T08:25:44;14.03;;;3.27;;
16073;SDS011;8141;52.664;5.074;2023-09-30T08:28:10;7.67;;;3.47;;
16073;SDS011;8141;52.664;5.074;2023-09-30T08:30:37;9.53;;;3.20;;
16073;SDS011;8141;52.664;5.074;2023-09-30T08:33:03;8.83;;;3.27;;
16073;SDS011;8141;52.664;5.074;2023-09-30T08:35:30;8.23;;;3.40;;
16073;SDS011;8141;52.664;5.074;2023-09-30T08:38:01;7.17;;;3.17;;
16073;SDS011;8141;52.664;5.074;2023-09-30T08:40:27;9.53;;;3.60;;
16073;SDS011;8141;52.664;5.074;2023-09-30T08:42:53;7.00;;;2.83;;
16073;SDS011;8141;52.664;5.074;2023-09-30T08:45:19;7.40;;;2.93;;
16073;SDS011;8141;52.664;5.074;2023-09-30T08:47:45;6.77;;;3.33;;
16073;SDS011;8141;52.664;5.074;2023-09-30T08:50:11;10.10;;;3.57;;
16073;SDS011;8141;52.664;5.074;2023-09-30T08:52:39;8.97;;;2.77;;
16073;SDS011;8141;52.664;5.074;2023-09-30T08:55:07;7.33;;;3.20;;
16073;SDS011;8141;52.664;5.074;2023-09-30T08:57:35;8.07;;;3.53;;
16073;SDS011;8141;52.664;5.074;2023-09-30T09:00:06;7.40;;;2.87;;
16073;SDS011;8141;52.664;5.074;2023-09-30T09:02:38;8.33;;;2.93;;
16073;SDS011;8141;52.664;5.074;2023-09-30T09:05:07;7.57;;;2.90;;
16073;SDS011;8141;52.664;5.074;2023-09-30T09:07:34;8.63;;;2.87;;
16073;SDS011;8141;52.664;5.074;2023-09-30T09:10:04;11.03;;;2.73;;
16073;SDS011;8141;52.664;5.074;2023-09-30T09:12:31;7.60;;;2.67;;
16073;SDS011;8141;52.664;5.074;2023-09-30T09:15:02;8.57;;;2.63;;
16073;SDS011;8141;52.664;5.074;2023-09-30T09:17:41;8.00;;;2.60;;
16073;SDS011;8141;52.664;5.074;2023-09-30T09:20:11;5.83;;;2.57;;
16073;SDS011;8141;52.664;5.074;2023-09-30T09:22:46;6.38;;;2.47;;
16073;SDS011;8141;52.664;5.074;2023-09-30T09:25:19;6.70;;;2.30;;
16073;SDS011;8141;52.664;5.074;2023-09-30T09:27:47;4.17;;;2.13;;
16073;SDS011;8141;52.664;5.074;2023-09-30T09:30:15;4.93;;;2.20;;
16073;SDS011;8141;52.664;5.074;2023-09-30T09:32:58;7.37;;;2.40;;
16073;SDS011;8141;52.664;5.074;2023-09-30T09:35:25;5.17;;;2.50;;
16073;SDS011;8141;52.664;5.074;2023-09-30T09:37:56;4.33;;;1.90;;
16073;SDS011;8141;52.664;5.074;2023-09-30T09:40:22;5.77;;;2.07;;
16073;SDS011;8141;52.664;5.074;2023-09-30T09:42:54;5.77;;;2.07;;
16073;SDS011;8141;52.664;5.074;2023-09-30T09:45:27;5.60;;;2.00;;
16073;SDS011;8141;52.664;5.074;2023-09-30T09:47:53;6.00;;;2.20;;
16073;SDS011;8141;52.664;5.074;2023-09-30T09:50:20;4.93;;;2.20;;
16073;SDS011;8141;52.664;5.074;2023-09-30T09:52:51;5.70;;;1.70;;
16073;SDS011;8141;52.664;5.074;2023-09-30T09:55:21;3.73;;;1.90;;
16073;SDS011;8141;52.664;5.074;2023-09-30T09:57:49;3.90;;;2.07;;
16073;SDS011;8141;52.664;5.074;2023-09-30T10:00:15;5.40;;;1.90;;
16073;SDS011;8141;52.664;5.074;2023-09-30T10:02:44;4.90;;;2.40;;
16073;SDS011;8141;52.664;5.074;2023-09-30T10:05:11;4.90;;;1.97;;
16073;SDS011;8141;52.664;5.074;2023-09-30T10:07:39;4.70;;;1.90;;
16073;SDS011;8141;52.664;5.074;2023-09-30T10:10:17;6.07;;;2.07;;
16073;SDS011;8141;52.664;5.074;2023-09-30T10:12:45;5.37;;;1.80;;
16073;SDS011;8141;52.664;5.074;2023-09-30T10:17:56;4.93;;;1.87;;
16073;SDS011;8141;52.664;5.074;2023-09-30T10:20:27;4.03;;;1.83;;
16073;SDS011;8141;52.664;5.074;2023-09-30T10:25:42;4.10;;;1.70;;
16073;SDS011;8141;52.664;5.074;2023-09-30T10:31:16;3.10;;;1.50;;
16073;SDS011;8141;52.664;5.074;2023-09-30T10:38:57;7.17;;;1.40;;
16073;SDS011;8141;52.664;5.074;2023-09-30T10:46:58;9.50;;;1.77;;
16073;SDS011;8141;52.664;5.074;2023-09-30T10:51:54;4.67;;;1.50;;
16073;SDS011;8141;52.664;5.074;2023-09-30T10:54:22;4.37;;;1.97;;
16073;SDS011;8141;52.664;5.074;2023-09-30T10:56:52;4.50;;;1.53;;
16073;SDS011;8141;52.664;5.074;2023-09-30T10:59:22;6.60;;;1.60;;
16073;SDS011;8141;52.664;5.074;2023-09-30T11:01:51;6.63;;;2.20;;
16073;SDS011;8141;52.664;5.074;2023-09-30T11:04:20;6.37;;;1.50;;
16073;SDS011;8141;52.664;5.074;2023-09-30T11:06:46;7.17;;;1.90;;
16073;SDS011;8141;52.664;5.074;2023-09-30T11:09:16;6.60;;;1.50;;
16073;SDS011;8141;52.664;5.074;2023-09-30T11:14:29;9.03;;;1.90;;
16073;SDS011;8141;52.664;5.074;2023-09-30T11:17:05;7.27;;;2.00;;
16073;SDS011;8141;52.664;5.074;2023-09-30T11:19:34;8.90;;;2.03;;
16073;SDS011;8141;52.664;5.074;2023-09-30T11:22:02;7.37;;;1.50;;
16073;SDS011;8141;52.664;5.074;2023-09-30T11:24:28;6.03;;;1.53;;
16073;SDS011;8141;52.664;5.074;2023-09-30T11:26:54;8.90;;;1.67;;
16073;SDS011;8141;52.664;5.074;2023-09-30T11:29:20;7.93;;;1.83;;
16073;SDS011;8141;52.664;5.074;2023-09-30T11:31:47;6.30;;;2.13;;
16073;SDS011;8141;52.664;5.074;2023-09-30T11:34:16;6.30;;;1.73;;
16073;SDS011;8141;52.664;5.074;2023-09-30T11:36:51;5.47;;;1.83;;
16073;SDS011;8141;52.664;5.074;2023-09-30T11:39:23;3.33;;;1.30;;
16073;SDS011;8141;52.664;5.074;2023-09-30T11:41:52;5.50;;;1.50;;
16073;SDS011;8141;52.664;5.074;2023-09-30T11:44:20;5.83;;;2.23;;
16073;SDS011;8141;52.664;5.074;2023-09-30T11:46:50;4.50;;;1.70;;
16073;SDS011;8141;52.664;5.074;2023-09-30T11:49:24;3.93;;;1.37;;
16073;SDS011;8141;52.664;5.074;2023-09-30T11:52:01;4.97;;;1.60;;
16073;SDS011;8141;52.664;5.074;2023-09-30T11:54:33;3.70;;;1.10;;
16073;SDS011;8141;52.664;5.074;2023-09-30T11:57:10;4.20;;;1.40;;
16073;SDS011;8141;52.664;5.074;2023-09-30T11:59:40;4.97;;;1.70;;
16073;SDS011;8141;52.664;5.074;2023-09-30T12:02:07;3.37;;;1.90;;
16073;SDS011;8141;52.664;5.074;2023-09-30T12:04:37;5.20;;;1.60;;
16073;SDS011;8141;52.664;5.074;2023-09-30T12:07:04;3.80;;;1.63;;
16073;SDS011;8141;52.664;5.074;2023-09-30T12:09:32;7.43;;;1.70;;
16073;SDS011;8141;52.664;5.074;2023-09-30T12:12:00;5.43;;;1.70;;
16073;SDS011;8141;52.664;5.074;2023-09-30T12:14:26;4.20;;;1.20;;
16073;SDS011;8141;52.664;5.074;2023-09-30T12:16:54;5.20;;;1.80;;
16073;SDS011;8141;52.664;5.074;2023-09-30T12:19:20;5.00;;;1.40;;
16073;SDS011;8141;52.664;5.074;2023-09-30T12:21:46;5.57;;;2.20;;
16073;SDS011;8141;52.664;5.074;2023-09-30T12:24:16;5.60;;;2.13;;
16073;SDS011;8141;52.664;5.074;2023-09-30T12:26:47;7.83;;;1.60;;
16073;SDS011;8141;52.664;5.074;2023-09-30T12:29:15;4.37;;;1.60;;
16073;SDS011;8141;52.664;5.074;2023-09-30T12:31:47;6.63;;;1.50;;
16073;SDS011;8141;52.664;5.074;2023-09-30T12:34:15;4.63;;;1.67;;
16073;SDS011;8141;52.664;5.074;2023-09-30T12:36:41;6.77;;;2.23;;
16073;SDS011;8141;52.664;5.074;2023-09-30T12:39:08;3.47;;;1.20;;
16073;SDS011;8141;52.664;5.074;2023-09-30T12:41:38;3.47;;;1.47;;
16073;SDS011;8141;52.664;5.074;2023-09-30T12:44:05;4.33;;;1.60;;
16073;SDS011;8141;52.664;5.074;2023-09-30T12:46:32;3.73;;;1.30;;
16073;SDS011;8141;52.664;5.074;2023-09-30T12:49:05;4.30;;;1.50;;
16073;SDS011;8141;52.664;5.074;2023-09-30T12:51:32;4.13;;;1.53;;
16073;SDS011;8141;52.664;5.074;2023-09-30T12:53:58;8.03;;;1.80;;
16073;SDS011;8141;52.664;5.074;2023-09-30T12:56:25;4.10;;;1.17;;
16073;SDS011;8141;52.664;5.074;2023-09-30T12:58:54;6.17;;;1.30;;
16073;SDS011;8141;52.664;5.074;2023-09-30T13:01:20;3.13;;;1.37;;
16073;SDS011;8141;52.664;5.074;2023-09-30T13:03:47;5.83;;;1.70;;
16073;SDS011;8141;52.664;5.074;2023-09-30T13:06:14;5.53;;;1.37;;
16073;SDS011;8141;52.664;5.074;2023-09-30T13:08:41;7.43;;;2.20;;
16073;SDS011;8141;52.664;5.074;2023-09-30T13:11:07;3.73;;;1.03;;
16073;SDS011;8141;52.664;5.074;2023-09-30T13:13:33;5.57;;;1.53;;
16073;SDS011;8141;52.664;5.074;2023-09-30T13:16:00;3.87;;;1.30;;
16073;SDS011;8141;52.664;5.074;2023-09-30T13:18:27;5.87;;;1.40;;
16073;SDS011;8141;52.664;5.074;2023-09-30T13:20:53;4.43;;;1.73;;
16073;SDS011;8141;52.664;5.074;2023-09-30T13:23:19;4.63;;;1.40;;
16073;SDS011;8141;52.664;5.074;2023-09-30T13:25:45;3.77;;;1.60;;
16073;SDS011;8141;52.664;5.074;2023-09-30T13:28:12;4.53;;;1.67;;
16073;SDS011;8141;52.664;5.074;2023-09-30T13:30:38;5.37;;;1.43;;
16073;SDS011;8141;52.664;5.074;2023-09-30T13:33:04;3.40;;;1.30;;
16073;SDS011;8141;52.664;5.074;2023-09-30T13:35:30;3.87;;;1.30;;
16073;SDS011;8141;52.664;5.074;2023-09-30T13:37:56;5.83;;;1.40;;
16073;SDS011;8141;52.664;5.074;2023-09-30T13:40:23;3.80;;;1.40;;
16073;SDS011;8141;52.664;5.074;2023-09-30T13:42:48;5.33;;;1.50;;
16073;SDS011;8141;52.664;5.074;2023-09-30T13:45:14;5.60;;;1.87;;
16073;SDS011;8141;52.664;5.074;2023-09-30T13:47:42;4.73;;;1.30;;
16073;SDS011;8141;52.664;5.074;2023-09-30T13:50:09;3.70;;;1.80;;
16073;SDS011;8141;52.664;5.074;2023-09-30T13:52:35;3.53;;;1.40;;
16073;SDS011;8141;52.664;5.074;2023-09-30T13:55:01;3.27;;;1.37;;
16073;SDS011;8141;52.664;5.074;2023-09-30T13:57:29;5.03;;;1.70;;
16073;SDS011;8141;52.664;5.074;2023-09-30T13:59:55;3.17;;;1.10;;
16073;SDS011;8141;52.664;5.074;2023-09-30T14:02:21;2.97;;;1.13;;
16073;SDS011;8141;52.664;5.074;2023-09-30T14:04:48;2.80;;;1.40;;
16073;SDS011;8141;52.664;5.074;2023-09-30T14:07:14;3.57;;;1.73;;
16073;SDS011;8141;52.664;5.074;2023-09-30T14:09:43;3.33;;;1.37;;
16073;SDS011;8141;52.664;5.074;2023-09-30T14:12:09;2.83;;;1.37;;
16073;SDS011;8141;52.664;5.074;2023-09-30T14:14:35;5.07;;;1.70;;
16073;SDS011;8141;52.664;5.074;2023-09-30T14:17:01;3.27;;;1.27;;
16073;SDS011;8141;52.664;5.074;2023-09-30T14:19:33;3.00;;;1.60;;
16073;SDS011;8141;52.664;5.074;2023-09-30T14:21:59;3.80;;;1.60;;
16073;SDS011;8141;52.664;5.074;2023-09-30T14:24:26;6.90;;;2.10;;
16073;SDS011;8141;52.664;5.074;2023-09-30T14:26:51;7.53;;;2.20;;
16073;SDS011;8141;52.664;5.074;2023-09-30T14:29:17;5.47;;;1.50;;
16073;SDS011;8141;52.664;5.074;2023-09-30T14:31:43;5.47;;;1.83;;
16073;SDS011;8141;52.664;5.074;2023-09-30T14:34:08;3.87;;;1.77;;
16073;SDS011;8141;52.664;5.074;2023-09-30T14:36:34;5.20;;;1.80;;
16073;SDS011;8141;52.664;5.074;2023-09-30T14:39:00;4.80;;;1.87;;
16073;SDS011;8141;52.664;5.074;2023-09-30T14:41:26;3.67;;;1.60;;
16073;SDS011;8141;52.664;5.074;2023-09-30T14:43:51;7.10;;;2.00;;
16073;SDS011;8141;52.664;5.074;2023-09-30T14:46:17;3.93;;;2.17;;
16073;SDS011;8141;52.664;5.074;2023-09-30T14:48:43;5.20;;;1.80;;
16073;SDS011;8141;52.664;5.074;2023-09-30T14:51:09;6.80;;;2.30;;
16073;SDS011;8141;52.664;5.074;2023-09-30T14:53:35;6.83;;;2.13;;
16073;SDS011;8141;52.664;5.074;2023-09-30T14:56:01;6.57;;;2.00;;
16073;SDS011;8141;52.664;5.074;2023-09-30T14:58:27;6.97;;;1.93;;
16073;SDS011;8141;52.664;5.074;2023-09-30T15:00:52;5.93;;;2.10;;
16073;SDS011;8141;52.664;5.074;2023-09-30T15:03:18;4.10;;;2.03;;
16073;SDS011;8141;52.664;5.074;2023-09-30T15:05:46;6.10;;;2.00;;
16073;SDS011;8141;52.664;5.074;2023-09-30T15:08:15;6.10;;;2.17;;
16073;SDS011;8141;52.664;5.074;2023-09-30T15:10:41;6.13;;;1.80;;
16073;SDS011;8141;52.664;5.074;2023-09-30T15:13:07;4.50;;;1.90;;
16073;SDS011;8141;52.664;5.074;2023-09-30T15:15:37;6.50;;;1.87;;
16073;SDS011;8141;52.664;5.074;2023-09-30T15:18:02;7.17;;;1.70;;
16073;SDS011;8141;52.664;5.074;2023-09-30T15:20:29;4.30;;;1.80;;
16073;SDS011;8141;52.664;5.074;2023-09-30T15:22:55;5.43;;;1.90;;
16073;SDS011;8141;52.664;5.074;2023-09-30T15:25:21;3.83;;;1.93;;
16073;SDS011;8141;52.664;5.074;2023-09-30T15:27:46;8.13;;;2.70;;